createdAt,value
2023-02-17T00:01:41.446Z,122.88
2023-02-17T00:04:10.339Z,129.07
2023-02-17T00:06:39.596Z,127.97
2023-02-17T00:09:08.597Z,111.53
2023-02-17T00:11:37.669Z,126.32
2023-02-17T00:14:06.441Z,123.63
2023-02-17T00:16:35.362Z,130.70
2023-02-17T00:19:24.970Z,113.90
2023-02-17T00:21:59.984Z,118.28
2023-02-17T00:24:31.678Z,118.53
2023-02-17T00:27:01.185Z,176.50
2023-02-17T00:29:30.196Z,187.65
2023-02-17T00:32:00.785Z,149.18
2023-02-17T00:34:29.754Z,138.00
2023-02-17T00:36:58.436Z,134.85
2023-02-17T00:39:27.973Z,399.50
2023-02-17T00:41:56.817Z,232.48
2023-02-17T00:44:26.199Z,234.35
2023-02-17T00:46:55.117Z,216.00
2023-02-17T00:49:26.640Z,157.75
2023-02-17T00:51:55.722Z,144.32
2023-02-17T00:54:24.484Z,147.65
2023-02-17T00:56:53.478Z,125.60
2023-02-17T00:59:22.472Z,134.35
2023-02-17T01:01:53.902Z,142.93
2023-02-17T01:04:23.595Z,143.37
2023-02-17T01:06:52.953Z,158.55
2023-02-17T01:09:24.010Z,144.25
2023-02-17T01:11:53.884Z,147.68
2023-02-17T01:14:23.351Z,159.77
2023-02-17T01:16:52.366Z,163.38
2023-02-17T01:19:22.554Z,167.88
2023-02-17T01:21:51.857Z,181.63
2023-02-17T01:24:20.602Z,190.27
2023-02-17T01:26:49.688Z,169.07
2023-02-17T01:29:18.598Z,187.38
2023-02-17T01:31:47.999Z,239.45
2023-02-17T01:34:17.245Z,225.82
2023-02-17T01:36:46.370Z,202.73
2023-02-17T01:39:17.099Z,167.40
2023-02-17T01:41:48.533Z,156.25
2023-02-17T01:44:25.933Z,162.57
2023-02-17T01:46:57.241Z,168.82
2023-02-17T01:49:39.609Z,174.07
2023-02-17T01:52:12.236Z,179.20
2023-02-17T01:57:36.925Z,152.55
2023-02-17T02:00:09.432Z,190.73
2023-02-17T02:02:45.709Z,189.90
2023-02-17T02:05:17.529Z,184.43
2023-02-17T02:07:48.752Z,215.57
2023-02-17T02:10:20.263Z,248.18
2023-02-17T02:12:49.615Z,255.43
2023-02-17T02:15:24.118Z,299.33
2023-02-17T02:18:05.481Z,330.67
2023-02-17T02:20:35.516Z,320.27
2023-02-17T02:23:34.581Z,317.35
2023-02-17T02:26:37.124Z,322.70
2023-02-17T02:29:23.659Z,331.50
2023-02-17T02:32:19.265Z,351.55
2023-02-17T02:35:04.196Z,300.02
2023-02-17T02:38:06.711Z,302.38
2023-02-17T02:40:41.680Z,243.68
2023-02-17T02:43:11.285Z,281.25
2023-02-17T02:45:40.774Z,259.75
2023-02-17T02:48:09.984Z,268.88
2023-02-17T02:51:07.526Z,244.15
2023-02-17T02:53:54.956Z,272.55
2023-02-17T02:56:49.710Z,213.95
2023-02-17T02:59:22.278Z,216.65
2023-02-17T03:02:03.494Z,175.13
2023-02-17T03:05:05.235Z,191.88
2023-02-17T03:07:42.758Z,184.35
2023-02-17T03:10:12.235Z,190.70
2023-02-17T03:12:43.237Z,191.18
2023-02-17T03:15:33.229Z,198.73
2023-02-17T03:18:04.470Z,212.63
2023-02-17T03:20:41.145Z,236.95
2023-02-17T03:23:10.802Z,202.63
2023-02-17T03:25:39.806Z,214.65
2023-02-17T03:28:09.826Z,217.18
2023-02-17T03:30:39.876Z,208.70
2023-02-17T03:33:09.587Z,215.88
2023-02-17T03:35:38.454Z,195.70
2023-02-17T03:38:07.873Z,208.43
2023-02-17T03:40:37.160Z,189.13
2023-02-17T03:43:06.192Z,188.23
2023-02-17T03:45:38.239Z,190.50
2023-02-17T03:48:07.385Z,204.07
2023-02-17T03:50:36.171Z,207.10
2023-02-17T03:53:06.151Z,188.88
2023-02-17T03:55:34.980Z,219.70
2023-02-17T03:58:04.178Z,198.15
2023-02-17T04:00:33.007Z,199.02
2023-02-17T04:03:02.114Z,193.70
2023-02-17T04:05:30.868Z,184.18
2023-02-17T04:07:59.996Z,197.50
2023-02-17T04:10:28.748Z,206.40
2023-02-17T04:12:57.710Z,203.60
2023-02-17T04:15:26.494Z,213.05
2023-02-17T04:17:55.347Z,194.18
2023-02-17T04:20:24.107Z,191.55
2023-02-17T04:22:53.217Z,186.68
2023-02-17T04:25:22.022Z,197.65
2023-02-17T04:27:50.888Z,200.30
2023-02-17T04:30:19.735Z,199.32
2023-02-17T04:32:48.807Z,185.15
2023-02-17T04:35:17.543Z,181.88
2023-02-17T04:37:46.474Z,181.23
2023-02-17T04:40:15.470Z,192.60
2023-02-17T04:42:44.907Z,179.02
2023-02-17T04:45:14.402Z,184.05
2023-02-17T04:47:43.302Z,183.00
2023-02-17T04:50:12.477Z,162.18
2023-02-17T04:52:41.782Z,169.57
2023-02-17T04:55:11.571Z,161.50
2023-02-17T04:57:40.608Z,170.60
2023-02-17T05:00:10.311Z,162.20
2023-02-17T05:02:39.377Z,157.38
2023-02-17T05:05:08.453Z,169.13
2023-02-17T05:07:37.470Z,153.10
2023-02-17T05:10:06.508Z,143.35
2023-02-17T05:12:36.330Z,142.35
2023-02-17T05:15:06.086Z,151.60
2023-02-17T05:17:35.564Z,145.80
2023-02-17T05:20:05.573Z,123.63
2023-02-17T05:22:34.549Z,124.97
2023-02-17T05:25:03.284Z,133.85
2023-02-17T05:27:33.111Z,121.15
2023-02-17T05:30:01.925Z,105.88
2023-02-17T05:32:31.164Z,113.72
2023-02-17T05:34:59.906Z,111.00
2023-02-17T05:37:29.048Z,117.90
2023-02-17T05:39:57.750Z,168.57
2023-02-17T05:42:29.943Z,131.23
2023-02-17T05:44:58.827Z,162.57
2023-02-17T05:47:27.825Z,160.93
2023-02-17T05:49:56.994Z,146.25
2023-02-17T05:52:25.687Z,123.32
2023-02-17T05:54:54.696Z,114.65
2023-02-17T05:57:23.815Z,121.38
2023-02-17T05:59:52.940Z,127.50
2023-02-17T06:02:22.110Z,114.10
2023-02-17T06:04:51.217Z,123.35
2023-02-17T06:07:19.948Z,128.07
2023-02-17T06:09:48.876Z,112.28
2023-02-17T06:12:17.673Z,123.00
2023-02-17T06:14:46.550Z,130.13
2023-02-17T06:17:15.267Z,113.10
2023-02-17T06:19:44.263Z,115.10
2023-02-17T06:22:12.941Z,103.20
2023-02-17T06:24:43.585Z,115.93
2023-02-17T06:27:12.641Z,134.88
2023-02-17T06:29:41.683Z,117.28
2023-02-17T06:32:10.852Z,118.55
2023-02-17T06:34:39.596Z,127.85
2023-02-17T06:37:08.909Z,126.25
2023-02-17T06:39:37.586Z,117.85
2023-02-17T06:42:06.781Z,126.63
2023-02-17T06:44:35.573Z,118.10
2023-02-17T06:47:05.310Z,132.63
2023-02-17T06:49:34.170Z,132.35
2023-02-17T06:52:03.125Z,135.45
2023-02-17T06:54:31.840Z,132.15
2023-02-17T06:57:00.801Z,115.43
2023-02-17T06:59:29.567Z,118.80
2023-02-17T07:01:59.982Z,123.20
2023-02-17T07:04:30.959Z,158.25
2023-02-17T07:06:59.706Z,131.27
2023-02-17T07:09:28.594Z,135.50
2023-02-17T07:11:58.552Z,133.35
2023-02-17T07:14:28.019Z,142.88
2023-02-17T07:16:56.956Z,136.10
2023-02-17T07:19:26.197Z,136.60
2023-02-17T07:21:54.985Z,126.45
2023-02-17T07:24:24.054Z,164.23
2023-02-17T07:26:54.756Z,162.77
2023-02-17T07:29:24.352Z,140.65
2023-02-17T07:31:53.186Z,141.52
2023-02-17T07:34:22.196Z,167.18
2023-02-17T07:36:50.983Z,166.05
2023-02-17T07:39:20.200Z,144.25
2023-02-17T07:41:49.024Z,174.50
2023-02-17T07:44:23.990Z,196.60
2023-02-17T07:47:08.194Z,187.35
2023-02-17T07:49:41.466Z,185.98
2023-02-17T07:52:11.732Z,192.55
2023-02-17T07:54:40.808Z,182.98
2023-02-17T07:57:09.537Z,200.68
2023-02-17T07:59:38.616Z,191.90
2023-02-17T08:02:07.592Z,199.02
2023-02-17T08:04:36.677Z,228.23
2023-02-17T08:07:05.622Z,209.80
2023-02-17T08:09:55.520Z,213.07
2023-02-17T08:12:45.910Z,218.70
2023-02-17T08:15:15.384Z,245.15
2023-02-17T08:17:45.262Z,199.18
2023-02-17T08:20:16.605Z,217.20
2023-02-17T08:22:45.489Z,227.13
2023-02-17T08:25:14.216Z,269.63
2023-02-17T08:27:43.421Z,212.43
2023-02-17T08:30:12.602Z,218.05
2023-02-17T08:32:41.652Z,227.10
2023-02-17T08:35:11.421Z,229.90
2023-02-17T08:37:40.349Z,213.00
2023-02-17T08:40:09.803Z,200.27
2023-02-17T08:42:39.961Z,212.32
2023-02-17T08:45:09.161Z,213.65
2023-02-17T08:47:38.431Z,247.60
2023-02-17T08:50:12.974Z,242.45
2023-02-17T08:52:42.258Z,262.85
2023-02-17T08:55:11.269Z,257.85
2023-02-17T08:57:43.348Z,250.95
2023-02-17T09:00:13.307Z,231.38
2023-02-17T09:02:44.432Z,233.68
2023-02-17T09:05:15.134Z,233.23
2023-02-17T09:07:54.102Z,223.45
2023-02-17T09:10:23.334Z,234.68
2023-02-17T09:12:52.992Z,221.57
2023-02-17T09:15:21.948Z,227.55
2023-02-17T09:17:50.702Z,250.68
2023-02-17T09:20:25.058Z,229.27
2023-02-17T09:22:54.607Z,234.63
2023-02-17T09:25:23.697Z,242.10
2023-02-17T09:27:52.791Z,257.05
2023-02-17T09:30:21.585Z,240.07
2023-02-17T09:32:50.635Z,270.83
2023-02-17T09:35:20.061Z,237.60
2023-02-17T09:37:49.071Z,225.48
2023-02-17T09:40:50.683Z,199.25
2023-02-17T09:43:32.354Z,172.88
2023-02-17T09:46:21.113Z,173.18
2023-02-17T09:48:52.144Z,186.13
2023-02-17T09:51:40.621Z,176.27
2023-02-17T09:54:19.327Z,172.93
2023-02-17T09:56:51.735Z,185.65
2023-02-17T09:59:43.073Z,182.50
2023-02-17T10:02:27.294Z,183.45
2023-02-17T10:04:58.876Z,192.95
2023-02-17T10:07:34.383Z,159.10
2023-02-17T10:10:12.914Z,172.10
2023-02-17T10:12:55.641Z,157.35
2023-02-17T10:15:40.955Z,154.88
2023-02-17T10:18:17.848Z,140.68
2023-02-17T10:21:20.324Z,136.07
2023-02-17T10:23:49.622Z,121.65
2023-02-17T10:26:27.597Z,109.43
2023-02-17T10:29:02.591Z,132.23
2023-02-17T10:32:36.121Z,128.75
2023-02-17T10:35:18.127Z,129.63
2023-02-17T10:37:57.033Z,114.82
2023-02-17T10:40:29.331Z,117.95
2023-02-17T10:43:10.415Z,112.35
2023-02-17T10:45:44.640Z,104.90
2023-02-17T10:48:17.257Z,103.55
2023-02-17T10:50:48.748Z,109.22
2023-02-17T10:53:26.082Z,97.85
2023-02-17T10:56:09.758Z,102.45
2023-02-17T10:58:54.556Z,98.18
2023-02-17T11:01:27.272Z,88.63
2023-02-17T11:04:11.139Z,84.97
2023-02-17T11:06:58.412Z,82.40
2023-02-17T11:09:34.236Z,116.10
2023-02-17T11:12:13.850Z,89.72
2023-02-17T11:14:48.279Z,86.60
2023-02-17T11:17:35.797Z,83.60
2023-02-17T11:20:27.766Z,80.97
2023-02-17T11:23:18.069Z,67.60
2023-02-17T11:26:00.936Z,77.65
2023-02-17T11:28:30.647Z,77.05
2023-02-17T11:31:04.064Z,71.47
2023-02-17T11:33:41.616Z,62.47
2023-02-17T11:36:30.790Z,54.90
2023-02-17T11:39:01.843Z,64.80
2023-02-17T11:41:40.836Z,60.65
2023-02-17T11:44:13.493Z,66.03
2023-02-17T11:46:56.798Z,67.30
2023-02-17T11:49:41.147Z,70.70
2023-02-17T11:52:35.099Z,76.72
2023-02-17T11:55:32.961Z,70.03
2023-02-17T11:58:22.551Z,85.20
2023-02-17T12:01:11.089Z,81.25
2023-02-17T12:04:15.200Z,83.60
2023-02-17T12:06:44.118Z,76.13
2023-02-17T12:09:24.716Z,82.60
2023-02-17T12:12:17.940Z,87.18
2023-02-17T12:15:13.981Z,73.50
2023-02-17T12:18:08.788Z,78.90
2023-02-17T12:20:43.144Z,82.82
2023-02-17T12:23:21.023Z,88.15
2023-02-17T12:26:13.163Z,100.28
2023-02-17T12:28:59.928Z,96.63
2023-02-17T12:31:53.056Z,111.90
2023-02-17T12:34:35.474Z,119.40
2023-02-17T12:37:07.718Z,103.95
2023-02-17T12:39:43.032Z,107.88
2023-02-17T12:42:33.387Z,97.03
2023-02-17T12:45:08.784Z,106.88
2023-02-17T12:48:06.130Z,105.78
2023-02-17T12:51:10.516Z,112.43
2023-02-17T12:54:01.073Z,120.93
2023-02-17T12:56:38.997Z,111.55
2023-02-17T12:59:27.779Z,118.00
2023-02-17T13:02:11.795Z,124.63
2023-02-17T13:04:42.965Z,127.75
2023-02-17T13:07:42.581Z,116.72
2023-02-17T13:10:35.977Z,121.22
2023-02-17T13:13:15.454Z,110.80
2023-02-17T13:15:47.849Z,120.35
2023-02-17T13:18:25.885Z,137.90
2023-02-17T13:20:54.957Z,122.82
2023-02-17T13:23:33.103Z,130.30
2023-02-17T13:26:21.576Z,121.35
2023-02-17T13:28:54.195Z,129.88
2023-02-17T13:31:26.036Z,130.05
2023-02-17T13:34:00.662Z,162.65
2023-02-17T13:36:29.463Z,131.05
2023-02-17T13:39:25.253Z,121.78
2023-02-17T13:41:56.746Z,129.07
2023-02-17T13:44:31.815Z,114.47
2023-02-17T13:47:16.449Z,131.50
2023-02-17T13:49:54.267Z,139.45
2023-02-17T13:52:29.232Z,140.63
2023-02-17T13:54:59.242Z,144.23
2023-02-17T13:57:31.483Z,143.23
2023-02-17T14:00:24.122Z,137.85
2023-02-17T14:02:59.094Z,149.52
2023-02-17T14:05:34.287Z,170.75
2023-02-17T14:08:33.053Z,149.05
2023-02-17T14:11:23.115Z,155.25
2023-02-17T14:13:55.293Z,160.60
2023-02-17T14:16:44.390Z,169.02
2023-02-17T14:19:14.984Z,161.70
2023-02-17T14:21:47.443Z,152.35
2023-02-17T14:27:06.679Z,144.30
2023-02-17T14:29:46.189Z,162.38
2023-02-17T14:32:34.331Z,165.35
2023-02-17T14:35:14.872Z,160.50
2023-02-17T14:37:44.567Z,139.77
2023-02-17T14:40:27.296Z,152.52
2023-02-17T14:42:56.177Z,161.18
2023-02-17T14:45:25.006Z,147.90
2023-02-17T14:47:53.890Z,148.23
2023-02-17T14:50:22.767Z,149.35
2023-02-17T14:52:53.330Z,146.05
2023-02-17T14:55:50.988Z,155.90
2023-02-17T14:58:22.544Z,186.25
2023-02-17T15:00:52.568Z,162.57
2023-02-17T15:03:21.387Z,202.93
2023-02-17T15:05:51.101Z,190.23
2023-02-17T15:08:23.291Z,206.55
2023-02-17T15:10:52.424Z,262.80
2023-02-17T15:13:22.861Z,223.43
2023-02-17T15:15:52.239Z,242.27
2023-02-17T15:18:22.270Z,228.50
2023-02-17T15:20:52.892Z,202.68
2023-02-17T15:23:24.701Z,200.77
2023-02-17T15:25:55.851Z,183.97
2023-02-17T15:28:24.910Z,199.00
2023-02-17T15:30:57.229Z,203.75
2023-02-17T15:35:56.060Z,170.68
2023-02-17T15:38:28.128Z,201.38
2023-02-17T15:40:59.730Z,196.02
2023-02-17T15:46:18.116Z,207.18
2023-02-17T15:48:53.156Z,201.15
2023-02-17T15:51:22.195Z,214.80
2023-02-17T15:53:50.916Z,216.07
2023-02-17T15:56:31.264Z,214.63
2023-02-17T15:59:05.742Z,229.93
2023-02-17T16:01:36.040Z,224.82
2023-02-17T16:04:05.610Z,245.60
2023-02-17T16:06:34.461Z,258.50
2023-02-17T16:09:03.600Z,257.17
2023-02-17T16:11:33.250Z,245.82
2023-02-17T16:14:02.929Z,256.75
2023-02-17T16:16:35.050Z,271.35
2023-02-17T16:19:04.028Z,254.55
2023-02-17T16:21:32.759Z,261.63
2023-02-17T16:24:01.928Z,297.30
2023-02-17T16:26:34.752Z,272.88
2023-02-17T16:29:13.662Z,263.05
2023-02-17T16:31:42.808Z,266.25
2023-02-17T16:34:21.848Z,293.92
2023-02-17T16:36:52.967Z,253.57
2023-02-17T16:39:22.683Z,258.77
2023-02-17T16:41:51.705Z,274.33
2023-02-17T16:44:23.278Z,300.85
2023-02-17T16:46:54.793Z,282.25
2023-02-17T16:49:37.647Z,267.53
2023-02-17T16:52:20.108Z,284.02
2023-02-17T16:54:49.037Z,262.88
2023-02-17T16:57:20.450Z,274.15
2023-02-17T16:59:49.615Z,261.30
2023-02-17T17:02:19.821Z,281.23
2023-02-17T17:04:49.734Z,283.48
2023-02-17T17:07:18.964Z,260.27
2023-02-17T17:10:14.713Z,306.33
2023-02-17T17:12:37.172Z,247.75
2023-02-17T17:15:06.675Z,277.63
2023-02-17T17:17:41.375Z,285.92
2023-02-17T17:20:18.303Z,265.63
2023-02-17T17:22:47.760Z,269.10
2023-02-17T17:25:16.586Z,255.82
2023-02-17T17:27:46.899Z,304.73
2023-02-17T17:30:20.081Z,324.92
2023-02-17T17:32:49.524Z,310.75
2023-02-17T17:35:18.957Z,314.27
2023-02-17T17:37:48.600Z,351.60
2023-02-17T17:40:25.608Z,389.02
2023-02-17T17:42:54.986Z,446.85
2023-02-17T17:45:25.401Z,381.52
2023-02-17T17:47:54.367Z,406.75
2023-02-17T17:50:25.903Z,440.23
2023-02-17T17:52:55.012Z,421.40
2023-02-17T17:55:23.947Z,456.20
2023-02-17T17:57:56.312Z,496.38
2023-02-17T18:00:26.331Z,660.28
2023-02-17T18:02:55.170Z,596.38
2023-02-17T18:05:24.097Z,571.67
2023-02-17T18:07:53.306Z,564.15
2023-02-17T18:10:22.484Z,572.38
2023-02-17T18:12:51.292Z,567.63
2023-02-17T18:15:20.754Z,534.35
2023-02-17T18:17:50.364Z,541.90
2023-02-17T18:20:19.908Z,542.22
2023-02-17T18:22:48.724Z,548.15
2023-02-17T18:25:17.918Z,519.03
2023-02-17T18:27:48.267Z,482.30
2023-02-17T18:30:22.842Z,487.75
2023-02-17T18:32:52.734Z,517.15
2023-02-17T18:35:22.220Z,505.48
2023-02-17T18:37:51.513Z,463.67
2023-02-17T18:40:22.831Z,469.50
2023-02-17T18:42:51.767Z,440.98
2023-02-17T18:45:20.814Z,492.95
2023-02-17T18:47:49.709Z,522.08
2023-02-17T18:50:18.730Z,439.63
2023-02-17T18:52:47.951Z,415.13
2023-02-17T18:55:17.065Z,445.42
2023-02-17T18:57:46.678Z,369.35
2023-02-17T19:00:17.562Z,378.10
2023-02-17T19:02:46.530Z,383.45
2023-02-17T19:05:15.620Z,352.10
2023-02-17T19:07:44.732Z,351.63
2023-02-17T19:10:14.183Z,335.05
2023-02-17T19:12:43.282Z,345.98
2023-02-17T19:15:12.469Z,345.02
2023-02-17T19:17:42.270Z,354.58
2023-02-17T19:20:11.620Z,373.25
2023-02-17T19:22:40.787Z,358.20
2023-02-17T19:25:10.022Z,361.38
2023-02-17T19:27:41.620Z,363.00
2023-02-17T19:30:12.692Z,385.33
2023-02-17T19:32:41.596Z,429.15
2023-02-17T19:35:11.807Z,394.35
2023-02-17T19:37:40.839Z,390.85
2023-02-17T19:40:09.927Z,396.13
2023-02-17T19:42:41.009Z,385.27
2023-02-17T19:45:10.374Z,355.35
2023-02-17T19:47:39.042Z,335.77
2023-02-17T19:50:08.879Z,328.77
2023-02-17T19:52:38.565Z,323.98
2023-02-17T19:55:07.851Z,337.67
2023-02-17T19:57:36.950Z,341.58
2023-02-17T20:00:08.260Z,357.35
2023-02-17T20:02:37.860Z,352.90
2023-02-17T20:05:06.874Z,370.55
2023-02-17T20:07:36.137Z,363.08
2023-02-17T20:10:10.029Z,394.10
2023-02-17T20:12:39.587Z,382.23
2023-02-17T20:15:08.771Z,409.95
2023-02-17T20:17:37.900Z,436.27
2023-02-17T20:20:08.582Z,418.50
2023-02-17T20:22:37.555Z,421.95
2023-02-17T20:25:07.316Z,392.13
2023-02-17T20:27:36.312Z,411.95
2023-02-17T20:30:05.515Z,428.00
2023-02-17T20:32:34.362Z,455.60
2023-02-17T20:35:03.103Z,480.42
2023-02-17T20:37:32.163Z,455.23
2023-02-17T20:40:01.725Z,469.50
2023-02-17T20:42:30.973Z,440.75
2023-02-17T20:45:00.475Z,431.92
2023-02-17T20:47:29.395Z,474.13
2023-02-17T20:49:58.088Z,498.50
2023-02-17T20:52:27.186Z,490.88
2023-02-17T20:54:55.860Z,461.38
2023-02-17T20:57:24.794Z,474.90
2023-02-17T20:59:53.662Z,472.63
2023-02-17T21:02:22.797Z,465.17
2023-02-17T21:04:51.570Z,438.27
2023-02-17T21:07:20.701Z,442.00
2023-02-17T21:09:49.588Z,429.10
2023-02-17T21:12:20.297Z,422.17
2023-02-17T21:14:50.015Z,453.67
2023-02-17T21:17:19.879Z,454.02
2023-02-17T21:19:48.808Z,441.77
2023-02-17T21:22:17.713Z,449.48
2023-02-17T21:24:46.799Z,411.42
2023-02-17T21:27:15.581Z,420.33
2023-02-17T21:29:44.629Z,396.48
2023-02-17T21:32:13.371Z,373.70
2023-02-17T21:34:42.630Z,385.02
2023-02-17T21:37:12.626Z,453.20
2023-02-17T21:39:41.549Z,469.65
2023-02-17T21:42:10.416Z,473.33
2023-02-17T21:44:55.089Z,488.52
2023-02-17T21:47:24.333Z,473.58
2023-02-17T21:49:55.324Z,455.98
2023-02-17T21:52:24.352Z,488.40
2023-02-17T21:54:53.088Z,558.25
2023-02-17T21:57:22.352Z,576.00
2023-02-17T21:59:51.102Z,562.75
2023-02-17T22:02:20.187Z,538.97
2023-02-17T22:04:49.076Z,472.63
2023-02-17T22:07:17.993Z,471.48
2023-02-17T22:09:47.266Z,470.08
2023-02-17T22:12:16.275Z,469.48
2023-02-17T22:14:45.203Z,546.88
2023-02-17T22:17:14.153Z,622.58
2023-02-17T22:19:43.027Z,586.55
2023-02-17T22:22:12.242Z,583.50
2023-02-17T22:24:40.951Z,566.70
2023-02-17T22:27:09.940Z,527.38
2023-02-17T22:29:38.727Z,501.63
2023-02-17T22:32:07.697Z,509.88
2023-02-17T22:34:36.582Z,505.63
2023-02-17T22:37:05.628Z,474.70
2023-02-17T22:39:34.393Z,463.45
2023-02-17T22:42:03.863Z,514.90
2023-02-17T22:44:32.622Z,482.70
2023-02-17T22:47:01.546Z,471.33
2023-02-17T22:49:30.443Z,516.45
2023-02-17T22:51:59.382Z,535.90
2023-02-17T22:54:28.179Z,504.73
2023-02-17T22:56:57.369Z,506.08
2023-02-17T22:59:26.403Z,483.50
2023-02-17T23:01:55.559Z,493.25
2023-02-17T23:04:24.506Z,499.42
2023-02-17T23:06:53.423Z,480.58
2023-02-17T23:09:22.185Z,460.23
2023-02-17T23:11:51.286Z,451.60
2023-02-17T23:14:28.015Z,432.38
2023-02-17T23:17:00.813Z,420.23
2023-02-17T23:19:31.047Z,416.27
2023-02-17T23:22:03.356Z,417.35
2023-02-17T23:24:32.756Z,435.40
2023-02-17T23:27:02.395Z,420.35
2023-02-17T23:29:32.936Z,399.63
2023-02-17T23:32:02.472Z,380.73
2023-02-17T23:34:31.534Z,386.92
2023-02-17T23:37:01.059Z,343.73
2023-02-17T23:39:29.903Z,332.40
2023-02-17T23:41:58.961Z,343.48
2023-02-17T23:44:27.797Z,365.77
2023-02-17T23:46:56.686Z,422.33
2023-02-17T23:49:25.345Z,381.52
2023-02-17T23:51:54.442Z,398.75
2023-02-17T23:54:25.858Z,411.77
2023-02-17T23:56:54.809Z,423.75
2023-02-17T23:59:23.613Z,458.10
